Time;durP1;ratioP1;P1;durP2;ratioP2;P2;SDS_P1;SDS_P2;PMS_P1;PMS_P2;Temp;Humidity;BMP_temperature;BMP_pressure;BME280_temperature;BME280_humidity;BME280_pressure;Samples;Min_cycle;Max_cycle;Signal;HPM_P1;HPM_P2
2021/12/07 00:01:43;;;;;;;17.23;14.00;;;0.50;99.90;;;;;;4914761;29;20727;-79
2021/12/07 00:04:09;;;;;;;16.27;14.57;;;0.60;99.90;;;;;;4929098;29;20183;-78
2021/12/07 00:06:36;;;;;;;16.47;15.00;;;0.60;99.90;;;;;;4937838;29;20849;-79
2021/12/07 00:09:05;;;;;;;17.13;15.63;;;0.60;99.90;;;;;;4931855;29;20193;-77
2021/12/07 00:11:31;;;;;;;28.57;26.40;;;0.70;99.90;;;;;;4935097;29;20183;-78
2021/12/07 00:13:58;;;;;;;15.73;14.30;;;0.70;99.90;;;;;;4921014;29;20187;-77
2021/12/07 00:16:25;;;;;;;13.77;12.67;;;0.80;99.90;;;;;;4923309;29;20222;-78
2021/12/07 00:18:51;;;;;;;14.47;13.03;;;0.80;99.90;;;;;;4922358;29;20665;-77
2021/12/07 00:21:19;;;;;;;15.37;13.77;;;0.80;99.90;;;;;;4920860;29;20252;-77
2021/12/07 00:23:48;;;;;;;14.23;12.60;;;0.80;99.90;;;;;;4919741;29;20191;-79
2021/12/07 00:26:14;;;;;;;23.30;14.53;;;0.80;99.90;;;;;;4929207;29;20223;-78
2021/12/07 00:28:41;;;;;;;14.73;13.07;;;0.80;99.90;;;;;;4933184;29;20187;-77
2021/12/07 00:31:14;;;;;;;14.37;12.03;;;0.80;99.90;;;;;;4931060;29;20194;-78
2021/12/07 00:33:47;;;;;;;15.00;12.57;;;0.90;99.90;;;;;;4909928;29;20191;-77
2021/12/07 00:36:13;;;;;;;13.10;11.80;;;0.90;99.90;;;;;;4909067;29;20224;-78
2021/12/07 00:38:39;;;;;;;17.30;12.13;;;0.90;99.90;;;;;;4908390;29;20274;-78
2021/12/07 00:41:05;;;;;;;13.50;11.47;;;1.00;99.90;;;;;;4908899;29;20212;-77
2021/12/07 00:43:33;;;;;;;12.20;10.93;;;1.00;99.90;;;;;;4923503;29;20656;-77
2021/12/07 00:46:00;;;;;;;12.47;10.93;;;1.00;99.90;;;;;;4926318;29;20231;-77
2021/12/07 00:48:27;;;;;;;11.97;10.67;;;1.00;99.90;;;;;;4926008;29;20229;-78
2021/12/07 00:50:54;;;;;;;11.60;10.50;;;1.10;99.90;;;;;;4934997;29;20198;-77
2021/12/07 00:53:21;;;;;;;14.53;11.13;;;1.10;99.90;;;;;;4913257;29;20295;-78
2021/12/07 00:55:53;;;;;;;17.60;10.50;;;1.10;99.90;;;;;;4919874;29;20255;-77
2021/12/07 00:58:23;;;;;;;12.03;10.77;;;1.10;99.90;;;;;;4940658;29;20190;-78
2021/12/07 01:00:56;;;;;;;11.93;10.60;;;1.10;99.90;;;;;;4926559;29;20259;-77
2021/12/07 01:03:22;;;;;;;13.03;10.20;;;1.10;99.90;;;;;;4941170;29;20183;-78
2021/12/07 01:05:53;;;;;;;10.70;9.60;;;1.10;99.90;;;;;;4926928;29;20257;-78
2021/12/07 01:08:37;;;;;;;14.87;10.97;;;1.20;99.90;;;;;;4924797;29;20201;-78
2021/12/07 01:24:47;;;;;;;12.20;10.53;;;1.10;99.90;;;;;;4917103;29;20273;-76
2021/12/07 01:27:20;;;;;;;12.43;11.27;;;1.10;99.90;;;;;;4917244;29;20179;-79
2021/12/07 01:29:52;;;;;;;11.90;10.80;;;1.10;99.90;;;;;;4916960;29;20190;-77
2021/12/07 01:37:51;;;;;;;11.30;9.73;;;1.20;99.90;;;;;;4898736;29;20665;-79
2021/12/07 01:40:31;;;;;;;12.13;10.37;;;1.30;99.90;;;;;;4914130;29;20189;-76
2021/12/07 01:48:05;;;;;;;11.70;10.53;;;1.30;99.90;;;;;;4898576;29;20569;-77
2021/12/07 01:59:33;;;;;;;9.90;8.87;;;1.50;99.90;;;;;;4923282;29;20279;-78
2021/12/07 02:01:59;;;;;;;9.87;9.07;;;1.50;99.90;;;;;;4898437;29;20198;-79
2021/12/07 02:04:25;;;;;;;11.30;10.30;;;1.60;99.90;;;;;;4897065;29;20220;-77
2021/12/07 02:06:51;;;;;;;14.43;13.37;;;1.60;99.90;;;;;;4896104;29;20211;-76
2021/12/07 02:09:17;;;;;;;16.03;14.90;;;1.70;99.90;;;;;;4896024;29;20185;-76
2021/12/07 02:11:49;;;;;;;16.13;14.83;;;1.80;99.90;;;;;;4909078;29;20656;-76
2021/12/07 02:14:18;;;;;;;14.60;13.50;;;1.80;99.90;;;;;;4915627;29;20211;-76
2021/12/07 02:16:54;;;;;;;14.77;13.67;;;1.80;99.90;;;;;;4915813;29;20213;-76
2021/12/07 02:19:21;;;;;;;12.90;11.97;;;1.90;99.90;;;;;;4914683;29;20239;-76
2021/12/07 02:21:48;;;;;;;13.00;12.10;;;1.80;99.90;;;;;;4900865;29;20530;-76
2021/12/07 02:24:13;;;;;;;12.47;11.67;;;1.80;99.90;;;;;;4901846;29;20208;-77
2021/12/07 02:26:40;;;;;;;12.97;12.07;;;2.00;99.90;;;;;;4905236;29;20192;-77
2021/12/07 02:29:06;;;;;;;11.57;10.77;;;1.90;99.90;;;;;;4900850;29;20187;-77
2021/12/07 02:31:33;;;;;;;8.80;8.20;;;1.90;99.90;;;;;;4902141;29;20270;-77
2021/12/07 02:34:00;;;;;;;7.47;6.97;;;2.00;99.90;;;;;;4901280;29;20874;-77
2021/12/07 02:36:26;;;;;;;7.97;7.47;;;2.00;99.90;;;;;;4897398;29;20250;-77
2021/12/07 02:38:52;;;;;;;9.33;8.70;;;2.00;99.90;;;;;;4897009;29;20272;-77
2021/12/07 02:41:18;;;;;;;10.10;9.30;;;2.00;99.90;;;;;;4906892;29;20242;-77
2021/12/07 02:43:45;;;;;;;8.10;7.50;;;2.00;99.90;;;;;;4915795;29;20241;-77
2021/12/07 02:46:11;;;;;;;8.70;8.03;;;2.00;99.90;;;;;;4917851;29;20219;-77
2021/12/07 02:48:37;;;;;;;7.53;7.03;;;2.10;99.90;;;;;;4920230;29;20533;-77
2021/12/07 02:51:03;;;;;;;7.20;6.60;;;2.00;99.90;;;;;;4916848;29;20216;-77
2021/12/07 02:53:31;;;;;;;8.20;7.60;;;2.10;99.90;;;;;;4904690;29;20187;-77
2021/12/07 02:56:00;;;;;;;7.30;6.90;;;2.10;99.90;;;;;;4916943;29;20243;-77
2021/12/07 02:58:26;;;;;;;7.53;7.00;;;2.10;99.90;;;;;;4922644;29;20188;-77
2021/12/07 03:01:02;;;;;;;7.53;7.00;;;2.10;99.90;;;;;;4913554;29;20179;-77
2021/12/07 03:03:32;;;;;;;7.50;7.00;;;2.10;99.90;;;;;;4897623;29;20215;-77
2021/12/07 03:06:19;;;;;;;8.50;7.90;;;2.20;99.90;;;;;;4897214;29;20216;-77
2021/12/07 03:09:31;;;;;;;8.33;7.83;;;2.20;99.90;;;;;;4911184;29;20649;-77
2021/12/07 03:28:12;;;;;;;7.97;7.57;;;2.30;99.90;;;;;;4934632;29;20648;-75
2021/12/07 03:30:39;;;;;;;14.00;13.20;;;2.20;99.90;;;;;;4933960;29;20183;-75
2021/12/07 03:33:06;;;;;;;11.83;11.13;;;2.20;99.90;;;;;;4933677;29;20227;-74
2021/12/07 03:35:32;;;;;;;10.87;10.27;;;2.10;99.90;;;;;;4928383;29;20275;-74
2021/12/07 03:37:58;;;;;;;12.10;11.30;;;2.00;99.90;;;;;;4933814;29;20221;-74
2021/12/07 03:40:26;;;;;;;6.10;5.80;;;1.90;99.90;;;;;;4933381;29;20182;-72
2021/12/07 03:42:52;;;;;;;6.93;6.50;;;1.90;99.90;;;;;;4933629;29;20189;-73
2021/12/07 03:45:18;;;;;;;6.67;6.33;;;1.90;99.90;;;;;;4933785;29;20202;-73
2021/12/07 03:47:44;;;;;;;7.33;6.93;;;1.80;99.90;;;;;;4932968;29;20180;-73
2021/12/07 03:50:13;;;;;;;8.27;7.77;;;1.80;99.90;;;;;;4932003;29;20201;-72
2021/12/07 03:52:39;;;;;;;9.00;8.33;;;1.80;99.90;;;;;;4933494;29;20652;-72
2021/12/07 03:55:06;;;;;;;9.77;9.17;;;1.80;99.90;;;;;;4933239;29;20223;-72
2021/12/07 03:57:32;;;;;;;15.90;15.00;;;1.80;99.90;;;;;;4932539;29;20183;-72
2021/12/07 04:00:00;;;;;;;9.60;9.03;;;1.80;99.90;;;;;;4933343;29;20178;-73
2021/12/07 04:02:26;;;;;;;11.93;11.07;;;1.80;99.90;;;;;;4933486;29;20807;-73
2021/12/07 04:04:58;;;;;;;11.17;10.40;;;1.80;99.90;;;;;;4929011;29;20204;-73
2021/12/07 04:07:25;;;;;;;12.43;11.63;;;1.90;99.90;;;;;;4930375;29;20182;-73
2021/12/07 04:09:51;;;;;;;15.97;14.67;;;1.90;99.90;;;;;;4931421;29;20704;-73
2021/12/07 04:12:17;;;;;;;11.90;11.23;;;1.90;99.90;;;;;;4936926;29;20273;-74
2021/12/07 04:14:42;;;;;;;12.27;11.37;;;2.00;99.90;;;;;;4935559;29;20348;-73
2021/12/07 04:17:08;;;;;;;12.23;11.57;;;2.00;99.90;;;;;;4936812;29;20190;-74
2021/12/07 04:19:34;;;;;;;11.97;11.07;;;2.00;99.90;;;;;;4936241;29;20180;-73
2021/12/07 04:22:00;;;;;;;12.60;11.90;;;2.10;99.90;;;;;;4935495;29;20237;-74
2021/12/07 04:24:27;;;;;;;11.67;10.97;;;2.10;99.90;;;;;;4936532;29;20174;-73
2021/12/07 04:26:55;;;;;;;13.17;11.27;;;2.10;99.90;;;;;;4935629;29;20202;-74
2021/12/07 04:29:21;;;;;;;13.73;12.73;;;2.10;99.90;;;;;;4921979;29;20210;-74
2021/12/07 04:31:47;;;;;;;20.03;18.87;;;2.10;99.90;;;;;;4916108;29;20737;-74
2021/12/07 04:34:13;;;;;;;13.63;12.93;;;2.10;99.90;;;;;;4917605;29;20184;-74
2021/12/07 04:36:39;;;;;;;21.77;20.50;;;2.20;99.90;;;;;;4917455;29;20222;-74
2021/12/07 04:39:04;;;;;;;19.50;18.30;;;2.20;99.90;;;;;;4916503;29;20206;-74
2021/12/07 04:41:33;;;;;;;41.67;39.50;;;2.30;99.90;;;;;;4916628;29;20469;-73
2021/12/07 04:44:00;;;;;;;21.43;20.30;;;2.30;99.90;;;;;;4916112;29;20176;-73
2021/12/07 05:00:08;;;;;;;11.97;11.27;;;2.20;99.90;;;;;;4917352;29;20189;-74
2021/12/07 05:02:37;;;;;;;10.67;9.87;;;2.20;99.90;;;;;;4915888;29;20652;-74
2021/12/07 05:05:04;;;;;;;8.70;8.20;;;2.20;99.90;;;;;;4933238;29;20282;-73
2021/12/07 05:07:37;;;;;;;12.27;11.20;;;2.10;99.90;;;;;;4951093;28;20278;-74
2021/12/07 05:10:25;;;;;;;14.20;13.50;;;2.20;99.90;;;;;;4946125;29;20185;-76
2021/12/07 05:40:24;;;;;;;14.83;14.10;;;2.20;99.90;;;;;;4934862;29;20293;-74
2021/12/07 05:42:51;;;;;;;13.37;12.67;;;2.20;99.90;;;;;;4935397;29;20273;-75
2021/12/07 05:45:25;;;;;;;12.90;12.10;;;2.20;99.90;;;;;;4935317;29;20813;-74
2021/12/07 05:47:52;;;;;;;14.63;13.63;;;2.20;99.90;;;;;;4933993;29;20191;-74
2021/12/07 05:50:22;;;;;;;13.57;12.90;;;2.20;99.90;;;;;;4935113;29;20182;-75
2021/12/07 05:52:48;;;;;;;16.30;14.90;;;2.20;99.90;;;;;;4935381;29;20623;-74
2021/12/07 05:55:15;;;;;;;13.23;12.57;;;2.20;99.90;;;;;;4933747;29;20297;-74
2021/12/07 05:57:41;;;;;;;13.87;13.23;;;2.20;99.90;;;;;;4935918;29;20266;-75
2021/12/07 06:00:13;;;;;;;10.93;10.43;;;2.30;99.90;;;;;;4954004;29;20213;-74
2021/12/07 06:02:39;;;;;;;16.27;15.27;;;2.30;99.90;;;;;;4953960;29;20271;-74
2021/12/07 06:05:05;;;;;;;16.90;16.13;;;2.40;99.90;;;;;;4954034;29;20615;-74
2021/12/07 06:07:31;;;;;;;15.20;14.53;;;2.40;99.90;;;;;;4953065;29;20196;-74
2021/12/07 06:09:57;;;;;;;15.83;15.00;;;2.40;99.90;;;;;;4953440;28;20653;-74
2021/12/07 06:12:23;;;;;;;17.43;16.30;;;2.50;99.90;;;;;;4952883;28;20189;-75
2021/12/07 06:14:48;;;;;;;18.87;17.50;;;2.50;99.90;;;;;;4953659;28;20209;-75
2021/12/07 06:17:14;;;;;;;18.77;17.90;;;2.50;99.90;;;;;;4953865;29;20205;-74
2021/12/07 06:19:40;;;;;;;16.70;15.30;;;2.50;99.90;;;;;;4953451;28;20209;-74
2021/12/07 06:22:08;;;;;;;17.37;16.13;;;2.60;99.90;;;;;;4952666;28;20556;-75
2021/12/07 06:24:34;;;;;;;19.37;18.43;;;2.60;99.90;;;;;;4953143;28;20182;-74
2021/12/07 06:27:00;;;;;;;20.43;19.40;;;2.60;99.90;;;;;;4953933;29;20187;-74
2021/12/07 06:29:26;;;;;;;22.33;21.13;;;2.60;99.90;;;;;;4952958;28;20188;-74
2021/12/07 06:31:53;;;;;;;19.97;18.77;;;2.70;99.90;;;;;;4953106;28;20188;-74
2021/12/07 06:34:20;;;;;;;26.57;24.87;;;2.70;99.90;;;;;;4953642;28;20194;-73
2021/12/07 06:36:46;;;;;;;20.40;19.20;;;2.70;99.90;;;;;;4952457;29;20272;-74
2021/12/07 06:39:12;;;;;;;25.13;23.63;;;2.70;99.90;;;;;;4951544;29;20194;-74
2021/12/07 06:41:38;;;;;;;29.80;27.80;;;2.70;99.90;;;;;;4951955;28;20182;-74
2021/12/07 06:44:05;;;;;;;15.80;15.00;;;2.70;99.90;;;;;;4952295;29;20189;-64
2021/12/07 06:46:31;;;;;;;24.23;23.03;;;2.70;99.90;;;;;;4953513;28;20205;-65
2021/12/07 06:48:56;;;;;;;34.47;30.83;;;2.80;99.90;;;;;;4953508;28;20185;-71
2021/12/07 06:51:22;;;;;;;18.30;17.30;;;2.80;99.90;;;;;;4951901;29;20185;-67
2021/12/07 06:53:48;;;;;;;20.80;19.50;;;2.80;99.90;;;;;;4953514;28;20217;-68
2021/12/07 06:56:15;;;;;;;19.20;18.30;;;2.80;99.90;;;;;;4953296;28;20245;-68
2021/12/07 06:58:41;;;;;;;15.47;14.77;;;2.80;99.90;;;;;;4953298;28;20178;-68
2021/12/07 07:01:10;;;;;;;14.70;13.70;;;2.80;99.90;;;;;;4952952;28;20208;-69
2021/12/07 07:03:36;;;;;;;22.73;21.63;;;2.80;99.90;;;;;;4952282;29;20281;-68
2021/12/07 07:06:03;;;;;;;15.17;14.17;;;2.80;99.90;;;;;;4952136;28;20229;-68
2021/12/07 07:08:29;;;;;;;21.63;20.63;;;2.80;99.90;;;;;;4953349;28;20205;-68
2021/12/07 07:10:56;;;;;;;21.53;20.53;;;2.80;99.90;;;;;;4952990;28;20187;-68
2021/12/07 07:13:21;;;;;;;23.83;22.63;;;2.80;99.90;;;;;;4953433;28;20181;-68
2021/12/07 07:15:47;;;;;;;18.13;17.13;;;2.70;99.90;;;;;;4952323;29;20225;-67
2021/12/07 07:18:13;;;;;;;32.03;29.97;;;2.80;99.90;;;;;;4953577;28;20597;-68
2021/12/07 07:20:39;;;;;;;19.13;17.73;;;2.80;99.90;;;;;;4917518;28;20651;-67
2021/12/07 07:23:05;;;;;;;21.00;19.80;;;2.80;99.90;;;;;;4933857;29;20198;-67
2021/12/07 07:25:31;;;;;;;14.83;14.13;;;2.80;99.90;;;;;;4941130;29;20724;-68
2021/12/07 07:27:57;;;;;;;27.07;25.53;;;2.80;99.90;;;;;;4952670;29;20181;-67
2021/12/07 07:30:23;;;;;;;24.27;23.03;;;2.70;99.90;;;;;;4952356;29;20253;-67
2021/12/07 07:32:50;;;;;;;25.30;23.53;;;2.60;99.90;;;;;;4952895;28;20273;-73
2021/12/07 07:35:18;;;;;;;20.17;19.17;;;2.60;99.90;;;;;;4952577;28;20226;-67
2021/12/07 07:37:46;;;;;;;16.30;15.43;;;2.60;99.90;;;;;;4944069;28;20187;-67
2021/12/07 07:40:17;;;;;;;13.43;12.70;;;2.60;99.90;;;;;;4933266;29;20206;-68
2021/12/07 07:42:43;;;;;;;16.50;15.40;;;2.60;99.90;;;;;;4936331;29;20238;-68
2021/12/07 07:45:10;;;;;;;15.40;14.50;;;2.70;99.90;;;;;;4937469;29;20223;-68
2021/12/07 07:47:37;;;;;;;30.47;28.87;;;2.70;99.90;;;;;;4937656;29;20186;-68
2021/12/07 07:50:05;;;;;;;15.07;14.27;;;2.80;99.90;;;;;;4937014;29;20186;-67
2021/12/07 07:52:30;;;;;;;13.77;12.83;;;2.90;99.90;;;;;;4937765;29;20196;-67
2021/12/07 07:54:56;;;;;;;20.03;18.83;;;2.90;99.90;;;;;;4936234;29;20219;-67
2021/12/07 07:57:22;;;;;;;17.33;16.47;;;2.90;99.90;;;;;;4936060;29;20182;-66
2021/12/07 07:59:48;;;;;;;20.50;19.33;;;3.00;99.90;;;;;;4936997;29;20197;-67
2021/12/07 08:02:14;;;;;;;22.67;21.07;;;2.90;99.90;;;;;;4937108;29;20217;-68
2021/12/07 08:04:40;;;;;;;21.87;20.33;;;2.90;99.90;;;;;;4936749;29;20191;-67
2021/12/07 08:07:06;;;;;;;14.93;13.57;;;2.90;99.90;;;;;;4936989;29;20183;-68
2021/12/07 08:09:31;;;;;;;14.63;13.87;;;2.90;99.90;;;;;;4936795;29;20179;-67
2021/12/07 08:11:57;;;;;;;12.93;12.03;;;2.80;99.90;;;;;;4936220;29;20194;-68
2021/12/07 08:14:23;;;;;;;12.10;11.30;;;2.80;99.90;;;;;;4934739;29;20179;-68
2021/12/07 08:16:49;;;;;;;12.77;11.80;;;2.90;99.90;;;;;;4949964;28;20229;-67
2021/12/07 08:19:15;;;;;;;10.57;9.87;;;2.90;99.90;;;;;;4936275;29;20187;-68
2021/12/07 08:21:42;;;;;;;12.27;11.30;;;2.90;99.90;;;;;;4930894;29;20283;-68
2021/12/07 08:24:08;;;;;;;8.17;7.67;;;2.90;99.90;;;;;;4934017;28;20189;-68
2021/12/07 08:26:34;;;;;;;7.27;6.67;;;2.90;99.90;;;;;;4917546;29;20619;-68
2021/12/07 08:29:00;;;;;;;8.13;7.30;;;2.90;99.90;;;;;;4946478;28;20219;-68
2021/12/07 08:31:28;;;;;;;8.87;8.27;;;2.90;99.90;;;;;;4955426;28;20674;-68
2021/12/07 08:33:54;;;;;;;8.13;7.53;;;3.00;99.90;;;;;;4954649;28;20191;-68
2021/12/07 08:36:20;;;;;;;6.63;6.13;;;3.10;99.90;;;;;;4955242;29;20281;-68
2021/12/07 08:38:46;;;;;;;8.93;6.37;;;3.10;99.90;;;;;;4954515;29;20187;-68
2021/12/07 08:41:13;;;;;;;12.90;7.60;;;3.20;99.90;;;;;;4940362;28;20182;-68
2021/12/07 08:43:41;;;;;;;8.30;7.67;;;3.10;99.90;;;;;;4936200;29;20201;-68
2021/12/07 08:46:11;;;;;;;11.80;10.60;;;3.20;99.90;;;;;;4936425;29;20212;-68
2021/12/07 08:48:37;;;;;;;12.10;10.13;;;3.20;99.90;;;;;;4936449;29;20187;-68
2021/12/07 08:51:06;;;;;;;17.20;16.20;;;3.30;99.90;;;;;;4935807;29;20396;-68
2021/12/07 08:53:34;;;;;;;11.93;11.17;;;3.40;99.90;;;;;;4934293;29;20182;-68
2021/12/07 09:01:39;;;;;;;11.23;9.77;;;3.70;99.90;;;;;;4935685;29;20572;-68
2021/12/07 09:04:05;;;;;;;7.53;7.03;;;3.80;99.90;;;;;;4935032;29;20180;-69
2021/12/07 09:06:34;;;;;;;9.50;8.60;;;3.90;99.90;;;;;;4935892;29;20215;-70
2021/12/07 09:09:00;;;;;;;10.40;9.57;;;3.90;99.90;;;;;;4935076;29;20192;-70
2021/12/07 09:11:26;;;;;;;7.53;7.00;;;3.90;99.90;;;;;;4935645;29;20191;-70
2021/12/07 09:13:53;;;;;;;10.80;10.03;;;3.90;99.90;;;;;;4936543;29;20188;-70
2021/12/07 09:16:21;;;;;;;14.17;13.17;;;4.00;99.90;;;;;;4935440;29;20218;-68
2021/12/07 09:18:48;;;;;;;24.10;22.47;;;4.10;99.90;;;;;;4935585;29;20683;-69
2021/12/07 09:21:15;;;;;;;18.00;16.97;;;4.20;99.90;;;;;;4935264;29;20212;-70
2021/12/07 09:23:41;;;;;;;25.00;23.50;;;4.10;99.90;;;;;;4934340;29;20189;-70
2021/12/07 09:26:09;;;;;;;26.03;24.60;;;4.10;99.90;;;;;;4935463;29;20219;-70
2021/12/07 09:28:35;;;;;;;24.60;23.20;;;4.00;99.90;;;;;;4935422;29;20182;-69
2021/12/07 09:31:01;;;;;;;22.87;21.63;;;4.00;99.90;;;;;;4935373;29;20235;-70
2021/12/07 09:33:30;;;;;;;20.17;18.60;;;4.00;99.90;;;;;;4935434;29;20188;-70
2021/12/07 09:35:56;;;;;;;21.93;20.83;;;4.10;99.90;;;;;;4934006;29;20692;-70
2021/12/07 09:38:23;;;;;;;18.80;17.77;;;4.10;99.90;;;;;;4934305;29;20207;-72
2021/12/07 09:40:50;;;;;;;19.20;17.97;;;4.10;99.90;;;;;;4935062;29;20188;-72
2021/12/07 09:43:17;;;;;;;14.60;13.20;;;4.10;99.90;;;;;;4934931;29;20712;-70
2021/12/07 09:45:44;;;;;;;10.30;9.63;;;4.10;99.90;;;;;;4934262;29;20657;-72
2021/12/07 09:48:11;;;;;;;12.90;11.80;;;4.10;99.90;;;;;;4935231;29;20195;-70
2021/12/07 09:50:43;;;;;;;26.17;24.67;;;4.20;99.90;;;;;;4933411;29;20222;-70
2021/12/07 09:53:10;;;;;;;12.20;11.40;;;4.30;99.90;;;;;;4934089;29;20189;-70
2021/12/07 09:55:37;;;;;;;15.60;14.80;;;4.40;99.90;;;;;;4935127;29;20717;-70
2021/12/07 09:58:04;;;;;;;7.60;7.00;;;4.50;99.90;;;;;;4934970;29;20194;-70
2021/12/07 10:00:30;;;;;;;6.50;6.10;;;4.60;99.90;;;;;;4949336;28;20180;-70
2021/12/07 10:02:56;;;;;;;10.80;6.17;;;4.60;99.90;;;;;;4934953;29;20189;-71
2021/12/07 10:05:24;;;;;;;7.60;6.80;;;4.60;99.90;;;;;;4933679;29;20234;-69
2021/12/07 10:07:51;;;;;;;10.07;6.67;;;4.60;99.90;;;;;;4949786;28;20192;-70
2021/12/07 10:10:27;;;;;;;6.57;5.97;;;4.70;99.90;;;;;;4934556;29;20185;-68
2021/12/07 10:12:53;;;;;;;7.23;6.57;;;4.80;99.90;;;;;;4934591;29;20266;-68
2021/12/07 10:15:20;;;;;;;6.73;6.00;;;4.90;99.90;;;;;;4934814;29;20358;-69
2021/12/07 10:18:20;;;;;;;10.97;6.07;;;4.90;99.90;;;;;;4948758;29;20213;-71
2021/12/07 10:20:52;;;;;;;6.63;5.97;;;5.00;99.90;;;;;;4941280;28;20197;-69
2021/12/07 10:23:24;;;;;;;8.97;8.43;;;5.20;99.90;;;;;;4952197;28;20274;-69
2021/12/07 10:26:01;;;;;;;24.03;22.70;;;5.30;99.90;;;;;;4954004;28;20223;-69
2021/12/07 10:28:42;;;;;;;30.93;29.23;;;5.40;99.90;;;;;;4952312;28;20274;-69
2021/12/07 10:31:11;;;;;;;17.07;16.00;;;5.40;99.90;;;;;;4952595;28;20242;-69
2021/12/07 10:33:41;;;;;;;9.13;8.63;;;5.40;99.90;;;;;;4954095;28;20892;-69
2021/12/07 10:36:12;;;;;;;8.67;8.17;;;5.40;99.90;;;;;;4952135;28;20220;-69
2021/12/07 10:38:38;;;;;;;10.80;10.10;;;5.30;99.90;;;;;;4953434;29;20184;-69
2021/12/07 10:41:10;;;;;;;9.93;9.27;;;5.20;99.90;;;;;;4953166;28;20183;-69
2021/12/07 10:44:00;;;;;;;10.23;9.40;;;5.20;99.90;;;;;;4952839;28;20188;-69
2021/12/07 10:46:29;;;;;;;8.60;8.00;;;5.30;99.90;;;;;;4952208;28;20214;-69
2021/12/07 10:49:22;;;;;;;8.93;8.23;;;5.50;99.90;;;;;;4952224;29;20299;-69
2021/12/07 10:52:20;;;;;;;11.27;10.07;;;5.70;99.90;;;;;;4952988;28;20188;-71
2021/12/07 10:55:05;;;;;;;9.80;8.67;;;5.90;99.90;;;;;;4953127;28;20212;-69
2021/12/07 10:57:33;;;;;;;7.40;6.73;;;5.90;99.90;;;;;;4953099;29;20227;-69
2021/12/07 11:00:08;;;;;;;5.93;5.43;;;5.70;99.90;;;;;;4952803;28;20897;-69
2021/12/07 11:02:37;;;;;;;7.30;5.73;;;5.50;99.90;;;;;;4953265;29;20184;-66
2021/12/07 11:05:10;;;;;;;12.43;6.07;;;5.30;99.90;;;;;;4951457;28;20210;-65
2021/12/07 11:07:37;;;;;;;7.13;6.53;;;5.10;99.90;;;;;;4953326;28;20283;-65
2021/12/07 11:10:10;;;;;;;8.37;7.77;;;5.00;99.90;;;;;;4931094;28;20581;-64
2021/12/07 11:12:48;;;;;;;11.60;10.87;;;4.90;99.90;;;;;;4924994;29;20188;-65
2021/12/07 11:15:21;;;;;;;21.13;19.90;;;4.80;99.90;;;;;;4932984;29;20688;-65
2021/12/07 11:17:46;;;;;;;8.03;7.37;;;4.70;99.90;;;;;;4933852;29;20219;-65
2021/12/07 11:20:13;;;;;;;13.73;12.70;;;5.40;99.90;;;;;;4933348;29;20213;-65
2021/12/07 11:22:47;;;;;;;20.13;18.93;;;6.90;99.90;;;;;;4932494;29;20233;-65
2021/12/07 11:25:32;;;;;;;10.03;7.47;;;8.30;99.90;;;;;;4933869;29;20702;-65
2021/12/07 11:30:42;;;;;;;6.37;5.97;;;8.90;99.90;;;;;;4933642;29;20234;-66
2021/12/07 11:33:08;;;;;;;8.03;7.30;;;8.40;99.90;;;;;;4933587;29;20217;-65
2021/12/07 11:35:35;;;;;;;6.23;5.93;;;7.40;99.90;;;;;;4932610;29;20320;-65
2021/12/07 11:38:06;;;;;;;6.40;6.00;;;6.70;99.90;;;;;;4932680;29;20198;-65
2021/12/07 11:40:35;;;;;;;8.37;6.07;;;6.40;99.90;;;;;;4933252;29;20216;-65
2021/12/07 11:43:14;;;;;;;7.57;6.73;;;6.40;99.90;;;;;;4932218;29;20261;-65
2021/12/07 11:45:43;;;;;;;6.50;6.10;;;6.80;99.90;;;;;;4933502;29;20210;-65
2021/12/07 11:48:09;;;;;;;5.60;5.07;;;9.30;99.90;;;;;;4933320;29;20185;-65
2021/12/07 11:50:49;;;;;;;7.90;7.23;;;9.50;99.90;;;;;;4933111;29;20197;-65
2021/12/07 11:53:24;;;;;;;7.90;6.97;;;8.60;99.90;;;;;;4933528;29;20189;-65
2021/12/07 11:55:54;;;;;;;10.77;9.93;;;8.80;99.90;;;;;;4933452;29;20709;-66
2021/12/07 11:58:21;;;;;;;9.90;8.03;;;9.30;99.90;;;;;;4932254;29;20186;-65
2021/12/07 12:00:54;;;;;;;8.90;5.77;;;9.40;99.90;;;;;;4933186;29;20242;-65
2021/12/07 12:03:24;;;;;;;7.10;5.87;;;8.60;99.90;;;;;;4933402;29;20281;-65
2021/12/07 12:05:51;;;;;;;6.93;6.50;;;7.90;99.90;;;;;;4933390;29;20674;-65
2021/12/07 12:08:20;;;;;;;6.47;5.90;;;8.30;99.90;;;;;;4933476;29;20195;-65
2021/12/07 12:11:06;;;;;;;8.47;5.73;;;7.90;99.90;;;;;;4932149;29;20187;-65
2021/12/07 12:14:06;;;;;;;4.50;4.30;;;7.50;99.90;;;;;;4933363;29;20626;-65
2021/12/07 12:17:02;;;;;;;6.83;6.20;;;8.90;99.90;;;;;;4933327;29;20301;-67
2021/12/07 12:19:57;;;;;;;5.73;5.43;;;11.20;99.90;;;;;;4933129;29;20210;-65
2021/12/07 12:22:38;;;;;;;6.53;5.73;;;12.10;99.90;;;;;;4933053;29;20190;-65
2021/12/07 12:25:12;;;;;;;12.00;11.30;;;13.10;99.90;;;;;;4933095;29;20699;-66
2021/12/07 12:27:38;;;;;;;13.03;11.97;;;12.20;99.90;;;;;;4934733;29;20190;-65
2021/12/07 12:30:27;;;;;;;12.37;11.67;;;11.10;99.90;;;;;;4936266;29;20189;-65
2021/12/07 12:33:03;;;;;;;12.13;11.33;;;10.10;99.90;;;;;;4935402;29;20195;-65
2021/12/07 12:35:38;;;;;;;10.57;9.97;;;9.20;99.90;;;;;;4936503;29;20217;-65
2021/12/07 12:38:26;;;;;;;16.50;15.70;;;8.70;99.90;;;;;;4936759;29;20181;-71
2021/12/07 12:40:59;;;;;;;10.30;9.50;;;8.50;99.90;;;;;;4935162;29;20547;-70
2021/12/07 12:43:40;;;;;;;10.60;9.13;;;10.20;99.90;;;;;;4936696;29;20190;-70
2021/12/07 12:46:08;;;;;;;8.47;7.93;;;11.00;99.90;;;;;;4918439;29;20217;-70
2021/12/07 12:48:34;;;;;;;10.60;9.83;;;9.90;99.90;;;;;;4919082;28;20191;-70
2021/12/07 12:51:00;;;;;;;10.47;9.47;;;9.10;99.90;;;;;;4929519;29;20276;-70
2021/12/07 12:53:31;;;;;;;8.97;8.43;;;9.10;99.90;;;;;;4955145;28;20686;-71
2021/12/07 12:56:12;;;;;;;13.10;7.00;;;9.20;99.90;;;;;;4955338;28;20678;-71
2021/12/07 12:58:52;;;;;;;6.50;5.90;;;8.90;99.90;;;;;;4954464;28;20705;-71
2021/12/07 13:01:31;;;;;;;7.77;7.23;;;9.60;99.90;;;;;;4955051;28;20585;-70
2021/12/07 13:04:08;;;;;;;9.33;8.43;;;12.20;99.90;;;;;;4942850;28;20183;-71
2021/12/07 13:06:37;;;;;;;11.00;10.50;;;13.70;99.90;;;;;;4934881;29;20436;-71
2021/12/07 13:09:09;;;;;;;6.63;6.10;;;15.50;99.90;;;;;;4935292;29;20257;-71
2021/12/07 13:11:42;;;;;;;10.07;9.57;;;16.00;97.60;;;;;;4934224;29;20190;-71
2021/12/07 13:14:24;;;;;;;11.77;11.00;;;14.50;96.10;;;;;;4935081;29;20274;-71
2021/12/07 13:17:14;;;;;;;11.97;10.87;;;12.50;99.40;;;;;;4935902;29;20689;-72
2021/12/07 13:20:17;;;;;;;8.03;7.47;;;10.90;99.90;;;;;;4934558;29;20280;-72
2021/12/07 13:23:01;;;;;;;7.30;6.47;;;9.80;99.90;;;;;;4935341;29;20284;-71
2021/12/07 13:25:48;;;;;;;5.50;5.20;;;8.80;99.90;;;;;;4934267;29;20217;-73
2021/12/07 13:28:29;;;;;;;5.83;4.80;;;8.30;99.90;;;;;;4935789;29;20190;-75
2021/12/07 13:31:10;;;;;;;5.27;4.30;;;7.90;99.90;;;;;;4935193;29;20186;-75
2021/12/07 13:33:40;;;;;;;7.20;6.70;;;7.70;99.90;;;;;;4935817;29;20205;-75
2021/12/07 13:36:42;;;;;;;7.83;7.20;;;7.40;99.90;;;;;;4934013;29;20245;-75
2021/12/07 13:39:10;;;;;;;6.50;6.10;;;7.20;99.90;;;;;;4936995;29;20245;-75
2021/12/07 13:42:04;;;;;;;5.50;5.07;;;7.00;99.90;;;;;;4954327;28;20236;-74
2021/12/07 13:44:33;;;;;;;7.17;4.80;;;7.20;99.90;;;;;;4951590;29;20195;-75
2021/12/07 13:47:03;;;;;;;5.53;5.17;;;8.00;99.90;;;;;;4953376;29;20661;-75
2021/12/07 13:49:32;;;;;;;7.30;6.80;;;8.70;99.90;;;;;;4954490;29;20241;-75
2021/12/07 13:51:59;;;;;;;6.53;6.13;;;8.40;99.90;;;;;;4952958;28;20189;-75
2021/12/07 13:54:25;;;;;;;7.37;6.90;;;8.10;99.90;;;;;;4955097;28;20188;-75
2021/12/07 13:56:53;;;;;;;8.07;6.83;;;8.00;99.90;;;;;;4954545;28;20600;-75
2021/12/07 13:59:23;;;;;;;7.83;7.23;;;7.70;99.90;;;;;;4954775;28;20213;-77
2021/12/07 14:01:57;;;;;;;8.67;7.80;;;7.20;99.90;;;;;;4954182;28;20684;-75
2021/12/07 14:04:25;;;;;;;8.90;8.13;;;6.80;99.90;;;;;;4954082;28;20283;-73
2021/12/07 14:06:51;;;;;;;5.40;5.10;;;6.60;99.90;;;;;;4952642;29;20689;-66
2021/12/07 14:09:18;;;;;;;5.30;5.10;;;6.40;99.90;;;;;;4954503;28;20626;-66
2021/12/07 14:11:50;;;;;;;7.87;5.27;;;6.20;99.90;;;;;;4952391;28;20185;-66
2021/12/07 14:14:16;;;;;;;5.43;5.10;;;6.10;99.90;;;;;;4953868;28;20646;-66
2021/12/07 14:16:43;;;;;;;5.13;4.83;;;6.00;99.90;;;;;;4953614;28;20227;-65
2021/12/07 14:19:10;;;;;;;7.53;5.33;;;6.00;99.90;;;;;;4954355;28;20548;-65
2021/12/07 14:21:37;;;;;;;6.20;5.67;;;6.10;99.90;;;;;;4953170;28;20192;-66
2021/12/07 14:24:07;;;;;;;5.97;5.50;;;6.20;99.90;;;;;;4953932;28;20276;-71
2021/12/07 14:26:38;;;;;;;6.00;5.37;;;6.30;99.90;;;;;;4952369;28;20726;-71
2021/12/07 14:29:06;;;;;;;5.50;5.20;;;6.40;99.90;;;;;;4952401;29;20213;-71
2021/12/07 14:31:35;;;;;;;5.07;4.80;;;6.60;99.90;;;;;;4952163;28;20566;-71
2021/12/07 14:34:07;;;;;;;5.50;5.20;;;6.70;99.90;;;;;;4953705;28;20188;-71
2021/12/07 14:36:35;;;;;;;5.73;5.20;;;6.80;99.90;;;;;;4953301;28;20699;-72
2021/12/07 14:39:16;;;;;;;5.17;4.87;;;6.80;99.90;;;;;;4952576;28;20262;-73